Estacada, Oregon
Current Conditions -  °F | °C
As of 3:53 AM on Friday 24 Oct 2014 (Local Time) from KTTD Reporting Station
Broken Clouds Broken Clouds  
Wind Chill: 51°   Ceiling: 7500
Heat Index: 51°   Visibility: 10mi
Dew Point: 49°   Wind: 0mph
Humidity: 92%   Direction: NA
Pressure: 30.03"   Gusts: NA
Location:  45.29°N, 122.33°W
Report Text: KTTD 241053Z AUTO 00000KT 10SM FEW050 BKN075 11/09 A3003 RMK AO2 SLP167 T01060094 TSNO
Loading
Personal Weather Stations






























Interactive Weather Map
Tropical Storm Tracking
New forecast layout! Learn more

10-Day Weather Forecast

Advertisements
Track Severe Weather on mobile